Weather observations for the past three days for
Burlington Regional Airport
Imperial (Metric)
Date Time (cdt) Wind (mph) Vis. (mi.) Weather Sky Cond. Temperature (ºF) Relative Humidity Wind Chill (°F) Heat Index (°F) Pressure Precipitation (in)
Air Dwpt 6 hour altimeter (in) sea level (mb) 1 hr 3 hr 6 hr
Max. Min.
03 08:53 SW 8 10.00 Fair CLR 81 73 77% 86 29.94 1013.3
03 07:53 SW 7 10.00 Fair CLR 78.1 72 82% 80 29.94 1013.2
03 06:53 SW 6 7.00 Fair CLR 73.9 71.1 79 73 91% 29.93 1012.8
03 05:53 S 6 10.00 Fair CLR 73.9 70 88% 29.92 1012.4
03 04:53 SW 7 10.00 Fair CLR 77 71.1 82% 79 29.92 1012.3
03 03:53 SW 8 10.00 Fair CLR 77 71.1 82% 79 29.92 1012.3
03 02:53 SW 8 10.00 Fair CLR 79 71.1 77% 82 29.91 1012.2
03 01:53 SW 7 10.00 Fair CLR 77 72 85% 78 29.92 1012.4
03 00:53 SW 7 10.00 Fair CLR 77 72 87.1 75.9 85% 78 29.92 1012.6
02 23:53 S 3 10.00 Fair CLR 77 73 88% 78 29.92 1012.6
02 22:53 SW 7 9.00 Fair CLR 81 73.9 79% 86 29.92 1012.6
02 21:53 S 5 10.00 Fair CLR 81 75 82% 87 29.92 1012.4
02 20:53 S 6 10.00 Fair CLR 82 75 79% 89 29.91 1012.2
02 19:53 S 6 10.00 Fair CLR 82 75 79% 89 29.9 1011.8
02 18:53 S 7 10.00 Fair CLR 87.1 75.9 95 87.1 70% 98 29.91 1012.0
02 17:53 S 8 10.00 Fair CLR 91.9 75.9 60% 104 29.91 1012.1
02 16:53 S 9 10.00 Fair CLR 93.9 75.9 56% 107 29.91 1012.3
02 15:53 SW 10 10.00 Fair CLR 93.9 75.9 56% 107 29.93 1012.7
02 14:53 SW 8 10.00 Fair CLR 93.9 75 54% 106 29.94 1013.1
02 13:53 S 10 10.00 Fair CLR 91.9 75 58% 103 29.95 1013.6
02 12:53 SW 9 10.00 Fair CLR 91 75 91 73.9 59% 102 29.97 1014.1
02 11:53 SW 8 10.00 Fair CLR 88 73 61% 96 29.98 1014.6
02 10:53 Vrbl 3 8.00 Fair CLR 86 72 63% 92 29.99 1015.0
02 09:53 W 5 10.00 Fair CLR 84 72 67% 90 29.98 1014.5
02 08:53 SW 8 9.00 Fair CLR 80.1 72 76% 84 29.97 1014.2
02 07:53 SW 7 10.00 Fair CLR 77 71.1 82% 79 29.97 1014.3
02 06:53 SW 7 10.00 Fair CLR 73.9 70 78.1 71.1 88% 29.97 1014.1
02 05:53 SW 6 8.00 Fair CLR 73 69.1 87% 29.96 1013.9
02 04:53 SW 6 10.00 Fair CLR 73 69.1 87% 29.96 1013.9
02 03:53 SW 6 10.00 Fair CLR 73 69.1 87% 29.96 1013.7
02 02:53 S 7 10.00 Fair CLR 73 68 84% 29.94 1013.1
02 01:53 SW 6 10.00 Fair CLR 75 69.1 82% 75 29.95 1013.4
02 00:53 S 6 10.00 A Few Clouds FEW090 75.9 70 87.1 75 82% 77 29.96 1013.7
01 23:53 S 5 10.00 A Few Clouds FEW085 77 71.1 82% 79 29.96 1013.9
01 22:53 S 5 10.00 Overcast OVC090 77 73 88% 78 29.96 1013.9
01 21:53 Calm 10.00 Mostly Cloudy BKN090 78.1 72 82% 80 29.95 1013.6
01 20:53 S 3 10.00 Fair CLR 81 73 77% 86 29.94 1013.3
01 19:53 Calm 9.00 Fair CLR 82 73.9 77% 88 29.93 1013.1
01 18:53 S 3 10.00 Fair CLR 88 73.9 97 88 63% 97 29.93 1013.0
01 17:53 SW 6 10.00 Fair CLR 93 70 47% 99 29.94 1013.0
01 16:53 SW 10 10.00 Fair CLR 96.1 69.1 41% 102 29.94 1013.1
01 15:53 SW 8 10.00 Fair CLR 96.1 71.1 44% 104 29.95 1013.4
01 14:53 SW 9 10.00 Fair CLR 96.1 71.1 44% 104 29.96 1013.6
01 13:53 W 7 8.00 Fair CLR 96.1 71.1 44% 104 29.97 1014.2
01 12:53 W 8 9.00 Fair CLR 93 72 93.9 71.1 50% 101 29.99 1014.6
01 11:53 SW 7 10.00 Fair CLR 91 73 56% 100 30 1015.1
01 10:53 W 9 10.00 Fair CLR 88 71.1 57% 94 30 1015.4
01 09:53 SW 8 10.00 Fair CLR 84 70 63% 88 30.01 1015.5
01 08:53 SW 8 10.00 Fair CLR 79 72 79% 82 30.01 1015.5
01 07:53 SW 8 8.00 Fair CLR 75 71.1 88% 75 30 1015.4
01 06:53 SW 6 6.00 Fog/Mist CLR 71.1 69.1 77 71.1 94% 29.98 1014.7
01 05:53 SW 6 10.00 Fair CLR 72 70 94% 29.97 1014.1
01 04:53 S 5 6.00 Fog/Mist CLR 73 70 90% 29.96 1013.9
01 03:53 S 3 9.00 Fair CLR 72 71.1 97% 29.96 1013.8
01 02:53 Calm 10.00 Fair CLR 73.9 72 94% 29.96 1013.8
01 01:53 SW 5 10.00 Fair CLR 75.9 72 88% 76 29.96 1013.8
01 00:53 SW 5 10.00 Fair CLR 77 72 87.1 75 85% 78 29.96 1013.7
31 23:53 SW 3 10.00 Fair CLR 79 73 82% 82 29.95 1013.5
31 22:53 SW 6 10.00 Fair CLR 78.1 73.9 87% 81 29.94 1013.3
31 21:53 W 5 10.00 Fair CLR 80.1 75 85% 85 29.95 1013.3
31 20:53 SW 6 10.00 Fair CLR 80.1 75 85% 85 29.93 1013.1
31 19:53 S 5 7.00 Fair CLR 82 75 79% 89 29.92 1012.6
31 18:53 SW 5 8.00 Fair CLR 87.1 78.1 93.9 87.1 75% 100 29.92 1012.3
31 17:53 W 3 10.00 Fair CLR 91 73.9 57% 101 29.91 1012.1
31 16:53 W 7 10.00 Fair CLR 91 73.9 57% 101 29.91 1012.3
31 15:53 SW 8 10.00 Fair CLR 91 73 56% 100 29.92 1012.3
31 14:53 SW 8 10.00 Fair CLR 91.9 72 52% 100 29.92 1012.3
31 13:53 SW 8 10.00 Fair CLR 91 72 54% 99 29.92 1012.6
31 12:53 SW 10 10.00 Fair CLR 91 71.1 91 73.9 52% 98 29.94 1013.0
31 11:53 SW 10 9.00 Fair CLR 88 69.1 54% 92 29.95 1013.5
31 10:53 SW 12 9.00 Fair CLR 84.9 70 61% 89 29.94 1013.2
31 09:53 SW 13 9.00 Fair CLR 81 66.9 62% 83 29.93 1012.9
Date Time (cdt) Wind (mph) Vis. (mi.) Weather Sky Cond. Air Dwpt Max. Min. Relative Humidity Wind Chill (°F) Heat Index (°F) altimeter (in) sea level (mb) 1 hr 3 hr 6 hr
6 hour
Temperature (ºF) Pressure Precipitation (in)